Time;durP1;ratioP1;P1;durP2;ratioP2;P2;SDS_P1;SDS_P2;PMS_P1;PMS_P2;Temp;Humidity;BMP_temperature;BMP_pressure;BME280_temperature;BME280_humidity;BME280_pressure;Samples;Min_cycle;Max_cycle;Signal;HPM_P1;HPM_P2
2022/02/15 00:00:06;;;;;;;;;;;;;;;0.54;100.00;100165.19;4978931;28;20053;-63
2022/02/15 00:02:57;;;;;;;11.20;6.70;;;;;;;0.52;100.00;100172.13;4978877;28;19929;-64
2022/02/15 00:05:41;;;;;;;13.38;6.88;;;;;;;0.39;100.00;100165.69;4974605;28;20053;-62
2022/02/15 00:08:28;;;;;;;12.95;6.82;;;;;;;0.30;100.00;100170.66;4963634;28;20435;-60
2022/02/15 00:11:13;;;;;;;16.38;7.32;;;;;;;0.22;100.00;100148.72;4975433;28;20150;-61
2022/02/15 00:13:57;;;;;;;12.57;6.40;;;;;;;0.46;100.00;100177.16;4977774;28;20104;-61
2022/02/15 00:16:42;;;;;;;16.23;6.78;;;;;;;0.47;100.00;100176.34;4975649;28;20395;-60
2022/02/15 00:19:27;;;;;;;11.23;6.85;;;;;;;0.60;100.00;100176.69;4978324;28;20045;-61
2022/02/15 00:22:13;;;;;;;10.52;6.47;;;;;;;0.50;100.00;100152.91;4966281;28;20076;-62
2022/02/15 00:25:00;;;;;;;14.73;6.95;;;;;;;0.79;100.00;100165.84;4973691;28;20053;-59
2022/02/15 00:27:44;;;;;;;11.70;6.13;;;;;;;0.87;100.00;100181.72;4973471;28;20526;-60
2022/02/15 00:30:29;;;;;;;12.95;6.65;;;;;;;0.81;100.00;100179.84;4985012;28;20077;-60
2022/02/15 00:33:13;;;;;;;11.60;6.57;;;;;;;0.72;100.00;100183.94;4973027;28;20426;-61
2022/02/15 00:35:58;;;;;;;11.82;6.32;;;;;;;0.80;100.00;100185.91;4979918;28;20183;-60
2022/02/15 00:38:44;;;;;;;12.07;6.40;;;;;;;0.87;100.00;100189.56;4980498;28;20145;-60
2022/02/15 00:41:28;;;;;;;11.88;6.68;;;;;;;0.44;100.00;100144.94;4985048;28;20444;-61
2022/02/15 00:44:14;;;;;;;13.50;6.97;;;;;;;0.58;100.00;100188.81;4965419;28;20077;-62
2022/02/15 00:46:59;;;;;;;12.40;6.22;;;;;;;0.53;100.00;100192.13;4952484;28;20463;-61
2022/02/15 00:49:43;;;;;;;11.18;6.90;;;;;;;0.71;100.00;100193.47;4976206;28;20069;-60
2022/02/15 00:52:28;;;;;;;11.90;6.57;;;;;;;0.84;100.00;100185.16;4996141;28;20469;-60
2022/02/15 00:55:13;;;;;;;15.35;7.05;;;;;;;0.92;100.00;100196.66;4977931;28;20108;-61
2022/02/15 00:57:57;;;;;;;15.02;6.97;;;;;;;0.71;100.00;100206.53;4981132;28;20065;-61
2022/02/15 01:00:42;;;;;;;18.33;7.25;;;;;;;0.53;100.00;100193.03;4972644;28;20117;-60
2022/02/15 01:03:27;;;;;;;13.25;7.55;;;;;;;0.58;100.00;100200.94;4985451;28;20057;-60
2022/02/15 01:06:12;;;;;;;12.45;6.95;;;;;;;0.35;100.00;100215.13;4968629;28;20598;-60
2022/02/15 01:08:56;;;;;;;12.93;6.65;;;;;;;0.27;100.00;100167.97;4966154;28;20538;-61
2022/02/15 01:11:41;;;;;;;13.52;7.22;;;;;;;0.51;100.00;100212.09;4958946;28;20458;-59
2022/02/15 01:14:26;;;;;;;16.05;7.10;;;;;;;0.53;100.00;100218.22;4970776;28;20097;-61
2022/02/15 01:17:12;;;;;;;18.05;7.75;;;;;;;0.35;100.00;100216.00;4953478;28;20050;-61
2022/02/15 01:19:57;;;;;;;14.15;7.72;;;;;;;0.17;100.00;100213.75;4976312;28;20178;-62
2022/02/15 01:22:42;;;;;;;14.95;7.68;;;;;;;0.17;100.00;100208.53;4964087;28;20052;-62
2022/02/15 01:25:28;;;;;;;15.75;7.32;;;;;;;-0.26;100.00;100136.94;4980847;28;20054;-61
2022/02/15 01:28:12;;;;;;;16.90;7.72;;;;;;;-0.31;100.00;100128.13;4919399;28;20125;-61
2022/02/15 01:30:57;;;;;;;14.98;8.05;;;;;;;0.22;100.00;100219.09;4925032;28;20514;-60
2022/02/15 01:33:42;;;;;;;14.07;7.50;;;;;;;0.17;100.00;100223.31;4948849;28;20104;-61
2022/02/15 01:36:28;;;;;;;13.95;7.18;;;;;;;0.38;100.00;100233.44;4941547;28;20567;-60
2022/02/15 01:39:14;;;;;;;13.55;7.10;;;;;;;0.53;100.00;100216.50;4954412;28;20414;-62
2022/02/15 01:42:00;;;;;;;12.13;7.13;;;;;;;0.49;100.00;100214.66;4918344;28;20185;-62
2022/02/15 01:44:46;;;;;;;14.25;7.25;;;;;;;0.59;100.00;100221.88;4940651;28;20085;-61
2022/02/15 01:47:32;;;;;;;14.02;7.30;;;;;;;0.38;100.00;100176.06;4939702;28;20066;-61
2022/02/15 01:50:19;;;;;;;13.20;7.53;;;;;;;0.71;100.00;100216.09;4941076;28;20058;-60
2022/02/15 01:53:04;;;;;;;12.23;7.00;;;;;;;0.48;100.00;100205.06;4978077;28;20099;-61
2022/02/15 01:55:49;;;;;;;17.77;7.60;;;;;;;0.45;100.00;100218.03;4929621;29;20135;-62
2022/02/15 01:58:34;;;;;;;;;;;;;;;0.54;100.00;100227.78;4950125;28;20057;-61
2022/02/15 02:01:26;;;;;;;12.07;7.00;;;;;;;0.46;100.00;100244.97;4945841;28;19989;-62
2022/02/15 02:07:33;;;;;;;14.20;7.30;;;;;;;0.05;100.00;100234.25;4954586;28;20091;-61
2022/02/15 02:10:18;;;;;;;13.77;7.68;;;;;;;-0.15;100.00;100235.41;4950028;28;20070;-62
2022/02/15 02:13:03;;;;;;;16.00;7.75;;;;;;;0.05;100.00;100236.00;4937660;28;20106;-63
2022/02/15 02:15:49;;;;;;;13.38;7.07;;;;;;;0.04;100.00;100231.66;4944100;28;20189;-61
2022/02/15 02:18:39;;;;;;;15.07;7.82;;;;;;;0.09;100.00;100238.72;4925801;28;20109;-60
2022/02/15 02:21:38;;;;;;;15.75;8.30;;;;;;;0.18;100.00;100243.34;4960681;28;20097;-62
2022/02/15 02:24:25;;;;;;;14.75;7.20;;;;;;;0.16;100.00;100246.75;4945411;28;20050;-61
2022/02/15 02:27:15;;;;;;;;;;;;;;;0.11;100.00;100246.59;4956137;28;20063;-61
2022/02/15 02:30:00;;;;;;;13.43;7.25;;;;;;;0.19;100.00;100250.31;4968304;28;19929;-60
2022/02/15 02:32:52;;;;;;;14.35;7.05;;;;;;;0.10;100.00;100247.44;4983175;28;20059;-59
2022/02/15 02:35:37;;;;;;;17.00;7.78;;;;;;;-0.35;100.00;100210.50;4978598;28;20537;-61
2022/02/15 02:38:21;;;;;;;17.27;8.32;;;;;;;-0.47;100.00;100210.13;4980996;28;20068;-61
2022/02/15 02:41:06;;;;;;;16.98;7.75;;;;;;;-0.42;100.00;100218.97;4967310;28;20908;-62
2022/02/15 02:43:52;;;;;;;15.73;8.50;;;;;;;-0.33;100.00;100253.13;4960121;28;20057;-60
2022/02/15 02:46:36;;;;;;;14.50;7.97;;;;;;;-0.51;100.00;100246.47;4973050;28;20081;-61
2022/02/15 02:49:21;;;;;;;14.82;8.15;;;;;;;-0.55;100.00;100252.41;4985601;28;20113;-62
2022/02/15 02:52:06;;;;;;;18.00;8.38;;;;;;;-0.61;100.00;100260.00;4991725;28;20096;-59
2022/02/15 02:54:51;;;;;;;13.75;7.97;;;;;;;-0.83;100.00;100218.53;4992963;28;20061;-61
2022/02/15 02:57:38;;;;;;;18.00;7.93;;;;;;;-0.78;100.00;100256.00;4954682;28;20057;-60
2022/02/15 03:00:24;;;;;;;16.67;8.20;;;;;;;-0.69;100.00;100261.50;4957442;28;20788;-59
2022/02/15 03:03:21;;;;;;;16.23;7.55;;;;;;;-0.84;100.00;100267.09;4967834;28;20046;-60
2022/02/15 03:06:08;;;;;;;20.75;8.32;;;;;;;-0.72;100.00;100266.59;4979728;28;20109;-61
2022/02/15 03:08:53;;;;;;;15.02;7.53;;;;;;;-0.55;100.00;100268.03;4984976;28;20144;-60
2022/02/15 03:11:39;;;;;;;14.88;8.15;;;;;;;-0.53;100.00;100269.84;4968701;28;20057;-60
2022/02/15 03:14:25;;;;;;;17.27;8.32;;;;;;;-0.73;100.00;100220.56;4968596;28;20490;-60
2022/02/15 03:17:18;;;;;;;14.23;8.18;;;;;;;-0.66;100.00;100279.81;4972938;28;20049;-56
2022/02/15 03:20:04;;;;;;;17.10;8.52;;;;;;;-0.78;100.00;100275.06;4956858;28;20062;-72
2022/02/15 03:22:49;;;;;;;14.95;8.30;;;;;;;-1.08;100.00;100239.34;4959135;28;20053;-59
2022/02/15 03:25:35;;;;;;;18.42;9.07;;;;;;;-0.72;100.00;100280.50;4970029;28;20426;-61
2022/02/15 03:28:21;;;;;;;16.70;8.90;;;;;;;-0.99;100.00;100222.34;4934748;29;20050;-60
2022/02/15 03:31:06;;;;;;;18.60;8.93;;;;;;;-0.66;100.00;100279.81;4962733;28;20451;-63
2022/02/15 03:33:54;;;;;;;14.82;8.73;;;;;;;-0.46;100.00;100276.13;4933760;29;20058;-60
2022/02/15 03:36:39;;;;;;;;;;;;;;;-0.46;100.00;100276.13;4924697;28;20050;-59
2022/02/15 03:39:27;;;;;;;17.92;8.40;;;;;;;-0.46;100.00;100282.22;4946683;28;20322;-59
2022/02/15 03:45:18;;;;;;;18.88;8.80;;;;;;;-0.55;100.00;100281.06;4952886;28;20983;-61
2022/02/15 03:48:22;;;;;;;16.15;9.15;;;;;;;-0.58;100.00;100270.53;4954809;28;20062;-61
2022/02/15 03:51:06;;;;;;;18.10;9.27;;;;;;;-0.50;100.00;100280.38;4941655;29;20066;-61
2022/02/15 03:53:55;;;;;;;15.32;8.57;;;;;;;-0.44;100.00;100287.47;4952786;28;20180;-60
2022/02/15 03:56:40;;;;;;;;;;;;;;;-0.47;100.00;100280.44;4956418;28;20569;-63
2022/02/15 03:59:27;;;;;;;14.95;8.23;;;;;;;-0.81;100.00;100280.22;4930306;29;19977;-61
2022/02/15 04:02:13;;;;;;;15.73;8.50;;;;;;;-0.69;100.00;100285.81;4925231;28;20090;-61
2022/02/15 04:04:59;;;;;;;18.50;8.73;;;;;;;-0.54;100.00;100286.31;4940118;29;20101;-61
2022/02/15 04:07:47;;;;;;;21.60;9.25;;;;;;;-0.32;100.00;100286.13;4945302;28;20049;-59
2022/02/15 04:10:32;;;;;;;17.05;8.88;;;;;;;-0.40;100.00;100287.63;4953470;28;20569;-63
2022/02/15 04:13:17;;;;;;;16.08;9.25;;;;;;;-0.73;100.00;100262.22;4965580;28;20360;-57
2022/02/15 04:16:03;;;;;;;16.73;8.90;;;;;;;-0.51;100.00;100285.53;4934596;29;20098;-62
2022/02/15 04:18:48;;;;;;;16.80;8.90;;;;;;;-0.57;100.00;100295.72;4929770;29;20425;-59
2022/02/15 04:21:34;;;;;;;22.17;9.50;;;;;;;-0.56;100.00;100295.78;4943346;28;20653;-63
2022/02/15 04:24:19;;;;;;;20.67;9.57;;;;;;;-0.70;100.00;100290.97;4928607;28;20073;-62
2022/02/15 04:27:05;;;;;;;17.10;9.65;;;;;;;-0.65;100.00;100300.69;4954503;28;20053;-63
2022/02/15 04:29:49;;;;;;;19.52;10.00;;;;;;;-0.75;100.00;100302.97;4969900;28;20061;-62
2022/02/15 04:32:34;;;;;;;18.25;9.77;;;;;;;-0.91;100.00;100300.69;4966988;28;20058;-66
2022/02/15 04:35:21;;;;;;;22.83;10.02;;;;;;;-0.79;100.00;100309.75;4950860;28;20069;-60
2022/02/15 04:38:11;;;;;;;20.63;9.82;;;;;;;-0.53;100.00;100302.81;4992123;28;20057;-57
2022/02/15 04:40:56;;;;;;;20.98;9.90;;;;;;;-0.56;100.00;100310.50;4983833;28;20053;-62
2022/02/15 04:43:45;;;;;;;19.27;9.88;;;;;;;-0.50;100.00;100303.81;4980892;28;20526;-69
2022/02/15 04:46:36;;;;;;;25.05;9.52;;;;;;;-0.56;100.00;100316.63;4955767;28;20522;-64
2022/02/15 04:49:21;;;;;;;;;;;;;;;-0.61;100.00;100318.19;4964927;28;20093;-60
2022/02/15 04:52:07;;;;;;;;;;;;;;;-0.59;100.00;100315.66;4957730;28;20003;-63
2022/02/15 04:54:53;;;;;;;19.17;10.32;;;;;;;-0.62;100.00;100303.41;4977593;28;19972;-61
2022/02/15 04:57:37;;;;;;;18.58;9.43;;;;;;;-0.48;100.00;100320.34;4977131;28;20138;-64
2022/02/15 05:00:26;;;;;;;20.05;10.48;;;;;;;-0.86;100.00;100273.94;4982686;28;20057;-60
2022/02/15 05:03:23;;;;;;;20.60;10.45;;;;;;;-0.69;100.00;100319.66;4976469;28;20113;-61
2022/02/15 05:06:12;;;;;;;21.83;10.27;;;;;;;-0.85;100.00;100335.59;4965116;28;20065;-63
2022/02/15 05:08:57;;;;;;;21.73;10.65;;;;;;;-0.90;100.00;100326.72;4991330;28;20855;-60
2022/02/15 05:11:42;;;;;;;22.85;10.88;;;;;;;-0.78;100.00;100328.88;4985093;28;20184;-61
2022/02/15 05:14:26;;;;;;;19.45;10.50;;;;;;;-0.84;100.00;100321.75;4988963;28;20150;-62
2022/02/15 05:17:13;;;;;;;21.75;10.20;;;;;;;-0.74;100.00;100308.19;4987842;28;20056;-61
2022/02/15 05:19:59;;;;;;;18.73;9.85;;;;;;;-0.46;100.00;100336.94;4997852;28;20062;-60
2022/02/15 05:22:45;;;;;;;22.00;10.80;;;;;;;-0.29;100.00;100333.13;4975802;28;20097;-57
2022/02/15 05:25:31;;;;;;;19.70;10.18;;;;;;;-0.51;100.00;100295.94;4966096;28;20190;-66
2022/02/15 05:28:15;;;;;;;20.45;10.75;;;;;;;-0.21;100.00;100336.84;4947470;28;20479;-60
2022/02/15 05:31:02;;;;;;;19.83;9.98;;;;;;;-0.29;100.00;100332.22;4954283;28;20416;-63
2022/02/15 05:33:55;;;;;;;21.88;11.02;;;;;;;-0.51;100.00;100306.34;4935784;29;20607;-62
2022/02/15 05:36:40;;;;;;;21.50;9.90;;;;;;;-0.53;100.00;100342.75;4942260;28;20129;-61
2022/02/15 05:39:25;;;;;;;23.77;10.15;;;;;;;-0.61;100.00;100339.03;4922076;28;20046;-61
2022/02/15 05:42:18;;;;;;;21.70;9.27;;;;;;;-0.84;100.00;100336.47;4936752;28;20578;-60
2022/02/15 05:45:03;;;;;;;19.33;10.77;;;;;;;-0.53;100.00;100342.75;4949443;28;20112;-62
2022/02/15 05:47:48;;;;;;;18.98;9.45;;;;;;;-0.58;100.00;100305.28;4932039;28;20050;-61
2022/02/15 05:50:49;;;;;;;20.92;9.70;;;;;;;-0.19;100.00;100342.13;4960738;28;20134;-62
2022/02/15 05:53:38;;;;;;;20.38;10.00;;;;;;;-0.49;100.00;100315.09;4951520;28;20062;-62
2022/02/15 05:56:23;;;;;;;19.88;9.40;;;;;;;-0.52;100.00;100296.75;4938962;29;20057;-61
2022/02/15 05:59:28;;;;;;;20.27;8.65;;;;;;;-0.44;100.00;100348.25;4957423;28;20053;-63
2022/02/15 06:02:26;;;;;;;19.30;8.88;;;;;;;-0.66;100.00;100339.69;4936893;28;20904;-63
2022/02/15 06:05:23;;;;;;;17.35;9.52;;;;;;;-0.66;100.00;100353.59;4936189;28;20584;-62
2022/02/15 06:08:12;;;;;;;18.45;9.60;;;;;;;-0.34;100.00;100357.25;4932966;28;20081;-63
2022/02/15 06:11:04;;;;;;;18.55;9.32;;;;;;;-0.19;100.00;100369.03;4922900;28;20105;-61
2022/02/15 06:13:59;;;;;;;15.60;8.15;;;;;;;-0.42;100.00;100358.72;4932780;28;20097;-60
2022/02/15 06:16:45;;;;;;;18.58;9.18;;;;;;;-0.59;100.00;100306.09;4949518;28;20456;-64
2022/02/15 06:19:41;;;;;;;21.15;8.63;;;;;;;-0.39;100.00;100341.47;4958203;28;20181;-64
2022/02/15 06:22:27;;;;;;;13.30;7.82;;;;;;;-0.26;100.00;100366.22;4973326;28;21712;-59
2022/02/15 06:25:14;;;;;;;14.75;8.10;;;;;;;-0.24;100.00;100370.63;4925400;29;20118;-67
2022/02/15 06:28:08;;;;;;;15.70;8.65;;;;;;;-0.47;100.00;100378.53;4952372;28;20101;-64
2022/02/15 06:31:04;;;;;;;16.48;9.23;;;;;;;-0.52;100.00;100374.88;4947422;28;20062;-65
2022/02/15 06:33:51;;;;;;;14.85;8.32;;;;;;;-0.47;100.00;100365.53;4972479;28;20161;-66
2022/02/15 06:36:36;;;;;;;17.27;8.82;;;;;;;-0.36;100.00;100370.22;4983154;28;20536;-69
2022/02/15 06:39:21;;;;;;;15.93;8.15;;;;;;;-0.28;100.00;100365.25;4969308;28;20057;-60
2022/02/15 06:42:10;;;;;;;17.42;8.50;;;;;;;-0.34;100.00;100381.59;4981520;28;20069;-63
2022/02/15 06:44:57;;;;;;;14.40;7.85;;;;;;;-0.27;100.00;100383.56;4946159;28;20085;-65
2022/02/15 06:47:44;;;;;;;20.10;8.48;;;;;;;-0.20;100.00;100382.91;4970361;28;20049;-69
2022/02/15 06:50:29;;;;;;;13.50;8.43;;;;;;;-0.05;100.00;100395.53;4977691;28;20085;-65
2022/02/15 06:53:35;;;;;;;14.00;7.75;;;;;;;-0.16;100.00;100400.41;4973742;28;20112;-63
2022/02/15 06:56:29;;;;;;;16.63;7.63;;;;;;;0.12;100.00;100386.56;4951971;28;20415;-65
2022/02/15 06:59:20;;;;;;;17.00;7.97;;;;;;;0.04;100.00;100398.47;4954334;28;20100;-67
2022/02/15 07:02:05;;;;;;;18.50;8.32;;;;;;;0.05;100.00;100402.84;4948136;28;20121;-66
2022/02/15 07:04:55;;;;;;;17.85;7.95;;;;;;;0.13;100.00;100385.72;4960115;28;20151;-62
2022/02/15 07:07:40;;;;;;;17.25;8.45;;;;;;;0.28;100.00;100403.53;4953295;28;20164;-61
2022/02/15 07:10:32;;;;;;;13.88;7.22;;;;;;;0.15;100.00;100394.44;4961671;28;20385;-61
2022/02/15 07:13:19;;;;;;;14.05;7.60;;;;;;;0.04;100.00;100351.53;4950953;28;20109;-64
2022/02/15 07:16:05;;;;;;;15.95;8.07;;;;;;;0.42;100.00;100407.44;4976519;28;20062;-63
2022/02/15 07:18:51;;;;;;;14.95;8.38;;;;;;;0.58;100.00;100407.94;4976966;28;20189;-64
2022/02/15 07:22:07;;;;;;;16.77;8.20;;;;;;;0.71;100.00;100396.16;4916210;29;20228;-66
2022/02/15 07:25:11;;;;;;;15.90;7.78;;;;;;;0.89;100.00;100401.88;4917565;29;20071;-77
2022/02/15 07:28:08;;;;;;;17.25;8.13;;;;;;;0.72;100.00;100397.91;4892574;29;20103;-70
2022/02/15 07:30:54;;;;;;;15.95;8.18;;;;;;;1.00;100.00;100406.59;4883640;29;20884;-65
2022/02/15 07:33:40;;;;;;;13.02;7.60;;;;;;;1.04;100.00;100410.16;4887678;29;20176;-66
2022/02/15 07:36:28;;;;;;;15.38;7.75;;;;;;;0.77;100.00;100412.88;4901767;29;20103;-66
2022/02/15 07:39:14;;;;;;;14.82;7.00;;;;;;;0.88;100.00;100392.28;4901230;29;20563;-66
2022/02/15 07:41:59;;;;;;;16.08;8.32;;;;;;;0.97;100.00;100392.53;4872380;29;20138;-67
2022/02/15 07:44:57;;;;;;;12.57;7.57;;;;;;;1.12;100.00;100414.75;4884083;29;20438;-64
2022/02/15 07:47:41;;;;;;;15.85;7.90;;;;;;;1.15;100.00;100398.28;4883013;29;20136;-69
2022/02/15 07:50:26;;;;;;;21.77;7.40;;;;;;;1.30;100.00;100419.59;4875096;29;20640;-69
2022/02/15 07:53:11;;;;;;;13.05;7.45;;;;;;;1.50;100.00;100421.88;4898719;29;20090;-67
2022/02/15 07:55:55;;;;;;;12.90;7.35;;;;;;;1.70;100.00;100404.97;4895162;29;20067;-68
2022/02/15 07:58:40;;;;;;;18.48;7.57;;;;;;;1.88;100.00;100405.44;4918740;29;20155;-64
2022/02/15 08:01:24;;;;;;;20.70;7.50;;;;;;;1.78;100.00;100392.97;4931455;28;20077;-62
2022/02/15 08:04:13;;;;;;;;;;;;;;;1.97;100.00;100397.81;4936260;28;20050;-60
2022/02/15 08:07:03;;;;;;;13.43;6.93;;;;;;;1.98;100.00;100393.47;4923663;28;20000;-61
2022/02/15 08:09:49;;;;;;;11.52;6.88;;;;;;;1.90;100.00;100379.34;4934402;29;20467;-60
2022/02/15 08:12:36;;;;;;;13.38;7.13;;;;;;;1.86;100.00;100354.81;4954745;28;20119;-60
2022/02/15 08:15:28;;;;;;;11.77;6.68;;;;;;;3.34;100.00;100408.63;4950700;28;20142;-62
2022/02/15 08:18:12;;;;;;;14.07;7.25;;;;;;;5.54;100.00;100394.34;4938655;28;20467;-61
2022/02/15 08:20:57;;;;;;;13.80;7.68;;;;;;;7.02;100.00;100413.03;4950800;28;20349;-61
2022/02/15 08:23:42;;;;;;;15.98;7.13;;;;;;;8.16;100.00;100411.50;4953372;28;20062;-59
2022/02/15 08:26:26;;;;;;;9.88;6.80;;;;;;;9.51;100.00;100415.56;4986834;28;20061;-62
2022/02/15 08:29:14;;;;;;;12.55;7.22;;;;;;;9.58;88.55;100375.78;4975579;28;20070;-62
2022/02/15 08:32:00;;;;;;;13.80;6.57;;;;;;;10.56;83.29;100414.78;4949266;29;20081;-63
2022/02/15 08:34:45;;;;;;;11.50;7.40;;;;;;;10.45;78.31;100416.66;4942884;28;20085;-64
2022/02/15 08:37:32;;;;;;;;;;;;;;;11.06;82.98;100423.09;4937657;28;20078;-63
2022/02/15 08:40:18;;;;;;;12.43;7.13;;;;;;;10.64;72.36;100423.53;4922651;28;19929;-62
2022/02/15 08:43:02;;;;;;;11.43;6.78;;;;;;;10.83;74.54;100419.81;4917911;28;20131;-64
2022/02/15 08:45:48;;;;;;;14.38;7.03;;;;;;;10.72;73.24;100416.38;4950048;28;20053;-61
2022/02/15 08:48:32;;;;;;;11.63;7.13;;;;;;;10.75;70.33;100416.34;4951317;29;20094;-64
2022/02/15 08:51:19;;;;;;;12.80;7.00;;;;;;;10.00;72.68;100414.34;4938930;29;20058;-62
2022/02/15 08:54:05;;;;;;;10.77;7.63;;;;;;;9.47;76.79;100411.19;4951345;28;20158;-62
2022/02/15 08:56:50;;;;;;;10.90;7.60;;;;;;;9.89;73.69;100376.44;4956423;28;20552;-61
2022/02/15 08:59:36;;;;;;;11.65;7.70;;;;;;;10.30;73.93;100403.56;4938537;28;20201;-63
2022/02/15 09:02:23;;;;;;;9.63;6.93;;;;;;;11.60;67.35;100427.75;4949870;28;20065;-64
2022/02/15 09:05:09;;;;;;;12.38;7.55;;;;;;;11.00;65.89;100396.59;4947756;28;20042;-62
2022/02/15 09:07:53;;;;;;;9.93;7.13;;;;;;;11.75;66.49;100427.50;4938330;28;20580;-67
2022/02/15 09:10:39;;;;;;;13.60;7.47;;;;;;;12.52;57.43;100426.28;4973280;28;20093;-63
2022/02/15 09:13:24;;;;;;;14.05;8.18;;;;;;;9.72;62.99;100374.84;4981831;28;20053;-63
2022/02/15 09:16:08;;;;;;;12.13;7.75;;;;;;;10.51;68.74;100421.00;4971718;28;20129;-63
2022/02/15 09:18:53;;;;;;;17.67;8.27;;;;;;;11.20;67.89;100433.53;4970388;28;20178;-63
2022/02/15 09:21:39;;;;;;;14.05;8.02;;;;;;;11.72;59.82;100430.22;4953881;28;20109;-62
2022/02/15 09:24:23;;;;;;;13.75;8.07;;;;;;;12.73;58.12;100429.44;4945463;28;20040;-60
2022/02/15 09:27:08;;;;;;;;;;;;;;;14.46;55.99;100427.47;4970362;28;20073;-65
2022/02/15 09:29:56;;;;;;;15.82;7.35;;;;;;;14.23;48.23;100413.84;4951634;29;19930;-62
2022/02/15 09:32:42;;;;;;;13.10;7.95;;;;;;;14.99;41.51;100430.50;4921513;29;20102;-61
2022/02/15 09:35:26;;;;;;;16.55;7.82;;;;;;;14.68;46.12;100432.22;4952008;29;20117;-62
2022/02/15 09:38:10;;;;;;;11.35;8.07;;;;;;;14.94;44.04;100426.19;4965228;28;20278;-61
2022/02/15 09:40:55;;;;;;;12.07;8.13;;;;;;;13.93;44.21;100426.94;4990537;28;20045;-61
2022/02/15 09:43:39;;;;;;;12.05;7.72;;;;;;;13.79;46.63;100422.84;4962758;28;20562;-62
2022/02/15 09:46:24;;;;;;;13.57;8.57;;;;;;;12.52;47.97;100402.34;4968927;28;20066;-65
2022/02/15 09:49:48;;;;;;;13.20;7.72;;;;;;;13.92;49.21;100397.66;4954055;28;20045;-63
2022/02/15 09:52:14;;;;;;;13.43;7.80;;;;;;;14.14;45.80;100428.25;4983631;28;20040;-62
2022/02/15 09:55:00;;;;;;;13.02;8.25;;;;;;;14.17;45.00;100428.16;4952929;28;20058;-61
2022/02/15 09:57:44;;;;;;;12.90;7.95;;;;;;;14.38;44.47;100427.66;4944584;28;20049;-62
2022/02/15 10:00:29;;;;;;;9.15;7.45;;;;;;;14.54;44.83;100407.69;4957206;28;20081;-60
2022/02/15 10:03:15;;;;;;;11.65;7.40;;;;;;;16.17;42.49;100439.44;4969733;28;20049;-59
2022/02/15 10:06:00;;;;;;;11.05;7.28;;;;;;;16.85;35.78;100448.75;4970591;28;20050;-59
2022/02/15 10:08:44;;;;;;;;;;;;;;;16.50;42.28;100440.19;4980070;28;20049;-66
2022/02/15 10:11:41;;;;;;;12.05;8.10;;;;;;;15.87;38.91;100439.53;4990591;28;19916;-60
2022/02/15 10:14:27;;;;;;;9.85;7.47;;;;;;;17.05;37.50;100443.56;4961362;28;20057;-60
2022/02/15 10:17:15;;;;;;;9.25;7.07;;;;;;;18.72;31.85;100449.59;4971635;28;20522;-59
2022/02/15 10:19:59;;;;;;;10.40;7.35;;;;;;;18.03;30.71;100440.75;4966061;28;20259;-60
2022/02/15 10:22:44;;;;;;;10.32;8.13;;;;;;;18.12;30.62;100452.94;4960053;28;20494;-60
2022/02/15 10:25:35;;;;;;;9.82;7.25;;;;;;;17.68;32.79;100454.66;4982386;28;20053;-58
2022/02/15 10:28:22;;;;;;;9.45;7.35;;;;;;;18.14;31.92;100440.34;5006676;28;20108;-58
2022/02/15 10:31:07;;;;;;;9.82;7.18;;;;;;;17.79;32.38;100441.72;5007534;28;20045;-58
2022/02/15 10:33:51;;;;;;;12.93;7.50;;;;;;;16.77;32.86;100445.47;4970256;28;20451;-59
2022/02/15 10:36:36;;;;;;;9.75;7.28;;;;;;;16.89;33.15;100452.22;4988452;28;20497;-66
2022/02/15 10:39:20;;;;;;;10.15;7.10;;;;;;;15.36;35.13;100419.69;5002475;28;20049;-59
2022/02/15 10:42:13;;;;;;;9.43;7.07;;;;;;;16.11;36.48;100455.69;4995855;28;20044;-60
2022/02/15 10:45:01;;;;;;;11.13;6.85;;;;;;;16.77;35.14;100440.09;4973109;28;20480;-59
2022/02/15 10:47:48;;;;;;;8.90;6.93;;;;;;;16.55;35.14;100451.59;4987486;28;20517;-59
2022/02/15 10:50:37;;;;;;;12.07;7.22;;;;;;;16.57;33.47;100420.28;4999232;28;20041;-67
2022/02/15 10:53:23;;;;;;;12.38;7.40;;;;;;;15.48;36.37;100436.25;4999636;28;20042;-62
2022/02/15 10:56:08;;;;;;;10.85;6.97;;;;;;;16.18;35.90;100465.25;4989399;28;20056;-68
2022/02/15 10:58:54;;;;;;;10.88;7.30;;;;;;;15.57;36.36;100456.47;4988401;28;20175;-63
2022/02/15 11:01:43;;;;;;;13.13;7.22;;;;;;;16.16;36.94;100456.44;4982615;28;20086;-64
2022/02/15 11:04:32;;;;;;;9.38;7.07;;;;;;;16.86;35.52;100460.38;4967813;28;20050;-64
2022/02/15 11:07:19;;;;;;;8.65;6.70;;;;;;;15.87;35.88;100463.59;4969434;28;20092;-61
2022/02/15 11:10:14;;;;;;;8.55;6.82;;;;;;;17.34;35.07;100462.19;4966990;28;20141;-61
2022/02/15 11:13:01;;;;;;;;;;;;;;;17.44;35.69;100466.31;4975995;28;20053;-63
2022/02/15 11:15:51;;;;;;;9.15;6.43;;;;;;;17.19;34.34;100470.78;4989052;28;19917;-63
2022/02/15 11:18:35;;;;;;;10.50;6.88;;;;;;;16.17;35.07;100459.97;4988171;28;20057;-63
2022/02/15 11:21:28;;;;;;;9.73;7.18;;;;;;;16.40;36.58;100458.31;4972183;28;20058;-59
2022/02/15 11:24:13;;;;;;;8.13;6.55;;;;;;;16.56;35.74;100456.03;4982073;28;20034;-62
2022/02/15 11:26:57;;;;;;;7.90;6.47;;;;;;;16.05;35.85;100463.00;4959622;28;20066;-61
2022/02/15 11:29:51;;;;;;;11.20;6.60;;;;;;;16.14;37.54;100449.38;4954229;28;20046;-62
2022/02/15 11:32:42;;;;;;;12.38;7.15;;;;;;;15.16;38.07;100452.28;4940842;28;20046;-62
2022/02/15 11:35:32;;;;;;;11.73;6.90;;;;;;;14.86;40.00;100445.09;4947217;28;20524;-67
2022/02/15 11:38:16;;;;;;;11.90;6.95;;;;;;;14.37;39.73;100454.38;4937371;28;20062;-62
2022/02/15 11:41:04;;;;;;;12.02;7.40;;;;;;;13.57;43.97;100438.41;4984764;28;20203;-63
2022/02/15 11:44:05;;;;;;;11.57;6.90;;;;;;;13.80;46.95;100457.47;4982931;28;20173;-61
2022/02/15 11:46:51;;;;;;;9.65;6.68;;;;;;;13.40;47.66;100453.91;4913279;28;20065;-61
2022/02/15 11:49:36;;;;;;;9.63;7.22;;;;;;;13.80;47.21;100433.47;4964951;28;20276;-63
2022/02/15 11:52:21;;;;;;;8.77;6.47;;;;;;;12.88;47.80;100442.47;4953195;28;20391;-64
2022/02/15 11:55:09;;;;;;;9.02;6.30;;;;;;;13.15;50.08;100454.41;4972775;28;20072;-62
2022/02/15 11:57:53;;;;;;;10.13;6.45;;;;;;;13.37;50.47;100440.63;4945011;29;20464;-69
2022/02/15 12:00:40;;;;;;;10.18;7.07;;;;;;;14.48;46.15;100414.97;4949482;29;20043;-67
2022/02/15 12:03:24;;;;;;;11.57;6.88;;;;;;;13.88;46.43;100411.09;4956977;28;20158;-62
2022/02/15 12:06:09;;;;;;;10.20;6.35;;;;;;;13.36;47.12;100406.03;4969001;28;20045;-63
2022/02/15 12:08:56;;;;;;;8.35;6.18;;;;;;;13.07;49.64;100449.25;4977657;28;20851;-63
2022/02/15 12:11:46;;;;;;;10.10;6.47;;;;;;;12.04;51.99;100409.38;4988195;28;20090;-63
2022/02/15 12:14:31;;;;;;;9.75;6.90;;;;;;;12.92;52.89;100438.84;4968676;28;20093;-63
2022/02/15 12:17:23;;;;;;;9.48;6.53;;;;;;;12.43;54.64;100437.09;4962015;28;20101;-63
2022/02/15 12:20:08;;;;;;;9.35;6.05;;;;;;;13.27;52.91;100454.16;4934705;28;20181;-61
2022/02/15 12:22:54;;;;;;;8.02;6.30;;;;;;;13.03;53.10;100444.88;4909256;28;20094;-64
2022/02/15 12:26:06;;;;;;;9.70;6.68;;;;;;;11.90;56.23;100453.88;4935779;28;20047;-63
2022/02/15 12:28:58;;;;;;;9.52;6.47;;;;;;;11.82;59.56;100444.25;4929578;28;20038;-68
2022/02/15 12:31:42;;;;;;;9.02;6.43;;;;;;;11.42;59.84;100427.06;4937012;28;20045;-62
2022/02/15 12:34:27;;;;;;;;;;;;;;;11.05;62.72;100454.94;4919662;28;20045;-61
2022/02/15 12:37:18;;;;;;;11.65;6.70;;;;;;;10.50;66.05;100446.66;4922834;28;19967;-62
2022/02/15 12:40:06;;;;;;;9.70;6.22;;;;;;;11.06;64.12;100411.56;4942707;28;20042;-64
2022/02/15 12:42:54;;;;;;;8.63;6.20;;;;;;;11.37;62.27;100456.34;4932507;28;20157;-64
2022/02/15 12:45:45;;;;;;;8.95;6.25;;;;;;;11.51;61.88;100454.38;4920755;28;20089;-65
2022/02/15 12:48:30;;;;;;;11.25;6.15;;;;;;;10.89;61.76;100406.50;4945894;28;20058;-64
2022/02/15 12:51:15;;;;;;;9.70;6.32;;;;;;;11.04;63.13;100450.53;4958034;28;20086;-62
2022/02/15 12:54:00;;;;;;;;;;;;;;;11.02;64.57;100454.97;4933915;28;20046;-62
2022/02/15 12:56:45;;;;;;;10.83;6.23;;;;;;;10.73;65.00;100454.41;4958694;28;20302;-62